Weather History for Washington, PA

Change the Weather History Date:

Friday, November 18, 2011

  Actual Average Record
Temperature  
Mean Temperature 30 °F -  
Max Temperature 42 °F 47 °F 64 °F (2003)
Min Temperature 19 °F 30 °F 14 °F (2005)
Degree Days  
Heating Degree Days 34    
Moisture  
Dew Point 17 °F    
Average Humidity 57    
Maximum Humidity 93    
Minimum Humidity 34    
Precipitation  
Precipitation 0.00 in - - ()
Sea Level Pressure  
Sea Level Pressure 30.34 in    
Wind  
Wind Speed 5 mph (SSW)    
Max Wind Speed 10 mph    
Max Gust Speed -    
Visibility 10 miles    
Events      
Averages and records for this station are not official NWS values.
T = Trace of Precipitation, MM = Missing Value Source: NWS Daily Summary

Daily Weather History Graph

Daily Weather History Graph

Search for Another Location

Airport:

Trip Planner

Search our weather history database for the weather conditions in past years. The results will help you decide how hot, cold, wet, or windy it might be!

Date:

Astronomy

Nov. 18, 2011 Rise Set
Actual Time 7:09 AM EST 5:02 PM EST
Civil Twilight 6:40 AM EST 5:31 PM EST
Nautical Twilight 6:07 AM EST 6:04 PM EST
Astronomical Twilight 5:35 AM EST 6:36 PM EST
Moon No Moon Rise 12:48 PM EST (11/18)
Length of Visible Light 10h 51m
Length of Day
9h 52m
Waning Gibbous, 49% of the Moon is Illuminated
Nov 18
Waning Gibbous
Nov 25
New
Dec 2
First Quarter
Dec 10
Full
Dec 17
Last Quarter

Hourly Weather History & Observations

Time (EST) Temp. Windchill Dew Point Humidity Pressure Visibility Wind Dir Wind Speed Gust Speed Precip Events Conditions
12:15 AM 28.4 °F 22.2 °F 15.8 °F 59% 30.28 in 10.0 mi West 5.8 mph - N/A   Scattered Clouds
12:35 AM 28.4 °F 22.2 °F 15.8 °F 59% 30.28 in 10.0 mi WSW 5.8 mph - N/A   Clear
12:55 AM 26.6 °F 21.2 °F 15.8 °F 64% 30.28 in 10.0 mi WSW 4.6 mph - N/A   Clear
1:15 AM 26.6 °F 22.6 °F 15.8 °F 64% 30.29 in 10.0 mi WSW 3.5 mph - N/A   Partly Cloudy
1:35 AM 24.8 °F 19.1 °F 15.8 °F 69% 30.30 in 10.0 mi WSW 4.6 mph - N/A   Clear
1:55 AM 24.8 °F 17.9 °F 15.8 °F 69% 30.30 in 10.0 mi WSW 5.8 mph - N/A   Clear
2:15 AM 26.6 °F 20.0 °F 15.8 °F 64% 30.32 in 10.0 mi WSW 5.8 mph - N/A   Clear
2:35 AM 26.6 °F 21.2 °F 15.8 °F 64% 30.33 in 10.0 mi WSW 4.6 mph - N/A   Clear
2:55 AM 24.8 °F 19.1 °F 17.6 °F 74% 30.33 in 10.0 mi WSW 4.6 mph - N/A   Clear
3:35 AM 24.8 °F 19.1 °F 15.8 °F 69% 30.34 in 10.0 mi WSW 4.6 mph - N/A   Clear
3:55 AM 24.8 °F 19.1 °F 15.8 °F 69% 30.35 in 10.0 mi WSW 4.6 mph - N/A   Clear
4:15 AM 24.8 °F 19.1 °F 15.8 °F 69% 30.36 in 10.0 mi WSW 4.6 mph - N/A   Clear
4:35 AM 23.0 °F 15.8 °F 15.8 °F 74% 30.36 in 10.0 mi SW 5.8 mph - N/A   Clear
4:55 AM 23.0 °F 17.0 °F 15.8 °F 74% 30.36 in 10.0 mi WSW 4.6 mph - N/A   Clear
5:15 AM 23.0 °F 18.4 °F 17.6 °F 80% 30.36 in 10.0 mi SW 3.5 mph - N/A   Clear
5:35 AM 19.4 °F 12.8 °F 17.6 °F 93% 30.37 in 10.0 mi WSW 4.6 mph - N/A   Clear
5:55 AM 21.2 °F 14.9 °F 15.8 °F 80% 30.37 in 10.0 mi SW 4.6 mph - N/A   Clear
6:15 AM 21.2 °F 16.4 °F 15.8 °F 80% 30.38 in 10.0 mi SW 3.5 mph - N/A   Clear
6:35 AM 21.2 °F 16.4 °F 15.8 °F 80% 30.39 in 10.0 mi SW 3.5 mph - N/A   Clear
6:55 AM 19.4 °F 12.8 °F 15.8 °F 86% 30.39 in 10.0 mi SW 4.6 mph - N/A   Clear
7:15 AM 21.2 °F 14.9 °F 15.8 °F 80% 30.39 in 10.0 mi SW 4.6 mph - N/A   Clear
7:35 AM 21.2 °F - 15.8 °F 80% 30.40 in 10.0 mi Calm Calm - N/A   Clear
7:55 AM 23.0 °F - 17.6 °F 80% 30.40 in 10.0 mi Calm Calm - N/A   Clear
8:15 AM 26.6 °F - 17.6 °F 69% 30.41 in 10.0 mi Calm Calm - N/A   Clear
8:35 AM 28.4 °F 21.2 °F 17.6 °F 64% 30.42 in 10.0 mi SW 6.9 mph - N/A   Clear
8:55 AM 28.4 °F 22.2 °F 19.4 °F 69% 30.42 in 10.0 mi WSW 5.8 mph - N/A   Clear
9:15 AM 30.2 °F 22.6 °F 17.6 °F 60% 30.43 in 10.0 mi SW 8.1 mph - N/A   Clear
9:35 AM 32.0 °F 24.2 °F 17.6 °F 55% 30.43 in 10.0 mi SSW 9.2 mph - N/A   Clear
9:55 AM 33.8 °F 26.4 °F 17.6 °F 52% 30.43 in 10.0 mi SSW 9.2 mph - N/A   Clear
10:15 AM 33.8 °F 26.4 °F 15.8 °F 48% 30.43 in 10.0 mi SW 9.2 mph - N/A   Clear
10:35 AM 35.6 °F 29.2 °F 15.8 °F 44% 30.42 in 10.0 mi SSW 8.1 mph - N/A   Clear
10:55 AM 35.6 °F 28.6 °F 15.8 °F 44% 30.42 in 10.0 mi SW 9.2 mph - N/A   Clear
11:15 AM 37.4 °F 30.8 °F 15.8 °F 41% 30.42 in 10.0 mi SW 9.2 mph - N/A   Clear
11:35 AM 37.4 °F 32.1 °F 17.6 °F 45% 30.41 in 10.0 mi SSW 6.9 mph - N/A   Clear
11:55 AM 39.2 °F 32.5 °F 15.8 °F 39% 30.40 in 10.0 mi WSW 10.4 mph - N/A   Clear
12:15 PM 39.2 °F 32.5 °F 17.6 °F 42% 30.40 in 10.0 mi SSW 10.4 mph - N/A   Clear
12:35 PM 39.2 °F 33.6 °F 15.8 °F 39% 30.39 in 10.0 mi WSW 8.1 mph - N/A   Clear
12:55 PM 41.0 °F 34.7 °F 15.8 °F 36% 30.38 in 10.0 mi SSW 10.4 mph - N/A   Clear
1:15 PM 41.0 °F 36.4 °F 15.8 °F 36% 30.37 in 10.0 mi SSW 6.9 mph - N/A   Clear
1:35 PM 41.0 °F 36.4 °F 15.8 °F 36% 30.36 in 10.0 mi SSW 6.9 mph - N/A   Clear
1:55 PM 42.8 °F 38.0 °F 15.8 °F 34% 30.36 in 10.0 mi South 8.1 mph - N/A   Clear
2:15 PM 42.8 °F 38.6 °F 15.8 °F 34% 30.36 in 10.0 mi SSW 6.9 mph - N/A   Clear
2:35 PM 42.8 °F 38.0 °F 15.8 °F 34% 30.36 in 10.0 mi South 8.1 mph - N/A   Clear
2:55 PM 42.8 °F 38.6 °F 17.6 °F 36% 30.34 in 10.0 mi South 6.9 mph - N/A   Clear
3:15 PM 42.8 °F 38.0 °F 15.8 °F 34% 30.33 in 10.0 mi South 8.1 mph - N/A   Clear
3:55 PM 41.0 °F 36.4 °F 15.8 °F 36% 30.32 in 10.0 mi SSE 6.9 mph - N/A   Clear
4:15 PM 39.2 °F 33.0 °F 15.8 °F 39% 30.31 in 10.0 mi SSE 9.2 mph - N/A   Clear
4:55 PM 39.2 °F 35.9 °F 15.8 °F 39% 30.31 in 10.0 mi South 4.6 mph - N/A   Overcast
5:15 PM 37.4 °F 32.8 °F 15.8 °F 41% 30.30 in 10.0 mi SSE 5.8 mph - N/A   Overcast
5:35 PM 37.4 °F 33.8 °F 17.6 °F 45% 30.30 in 10.0 mi SSE 4.6 mph - N/A   Overcast
5:55 PM 37.4 °F 32.8 °F 15.8 °F 41% 30.30 in 10.0 mi SSE 5.8 mph - N/A   Mostly Cloudy
6:15 PM 37.4 °F 32.8 °F 15.8 °F 41% 30.30 in 10.0 mi SSE 5.8 mph - N/A   Partly Cloudy
6:35 PM 35.6 °F 31.7 °F 17.6 °F 48% 30.29 in 10.0 mi SSE 4.6 mph - N/A   Clear
6:55 PM 33.8 °F 29.6 °F 17.6 °F 52% 30.28 in 10.0 mi SSE 4.6 mph - N/A   Clear
7:15 PM 33.8 °F - 17.6 °F 52% 30.28 in 10.0 mi Calm Calm - N/A   Clear
7:35 PM 32.0 °F 28.7 °F 19.4 °F 60% 30.26 in 10.0 mi South 3.5 mph - N/A   Clear
7:55 PM 33.8 °F 29.6 °F 17.6 °F 52% 30.26 in 10.0 mi South 4.6 mph - N/A   Clear
8:15 PM 32.0 °F 28.7 °F 19.4 °F 60% 30.26 in 10.0 mi South 3.5 mph - N/A   Clear
8:35 PM 32.0 °F 26.4 °F 19.4 °F 60% 30.25 in 10.0 mi SSE 5.8 mph - N/A   Clear
8:55 PM 32.0 °F 28.7 °F 17.6 °F 55% 30.25 in 10.0 mi South 3.5 mph - N/A   Clear
9:15 PM 30.2 °F 26.7 °F 21.2 °F 69% 30.24 in 10.0 mi South 3.5 mph - N/A   Clear
9:55 PM 28.4 °F - 21.2 °F 74% 30.24 in 10.0 mi Calm Calm - N/A   Clear
10:15 PM 28.4 °F - 21.2 °F 74% 30.23 in 10.0 mi Calm Calm - N/A   Clear
10:35 PM 28.4 °F - 21.2 °F 74% 30.23 in 10.0 mi Calm Calm - N/A   Clear
10:55 PM 28.4 °F 24.6 °F 19.4 °F 69% 30.22 in 10.0 mi South 3.5 mph - N/A   Clear
11:15 PM 28.4 °F - 19.4 °F 69% 30.22 in 10.0 mi Calm Calm - N/A   Clear
11:35 PM 30.2 °F - 19.4 °F 64% 30.22 in 10.0 mi Calm Calm - N/A   Partly Cloudy
11:55 PM 32.0 °F 28.7 °F 19.4 °F 60% 30.21 in 10.0 mi SSW 3.5 mph - N/A   Mostly Cloudy